Time;durP1;ratioP1;P1;durP2;ratioP2;P2;SDS_P1;SDS_P2;PMS_P1;PMS_P2;Temp;Humidity;BMP_temperature;BMP_pressure;BME280_temperature;BME280_humidity;BME280_pressure;Samples;Min_cycle;Max_cycle;Signal;HPM_P1;HPM_P2
2023/05/22 00:00:18;;;;;;;9.00;4.40;;;;;;;16.30;55.17;100897.80;218824;1286;138934;-87
2023/05/22 00:05:19;;;;;;;9.30;4.00;;;;;;;16.27;55.64;100897.09;219285;1286;138491;-87
2023/05/22 00:10:20;;;;;;;7.30;3.70;;;;;;;16.23;55.94;100895.85;218871;1287;139011;-87
2023/05/22 00:15:20;;;;;;;8.50;4.50;;;;;;;16.18;56.14;100890.23;219323;1287;138938;-89
2023/05/22 00:20:22;;;;;;;7.90;3.50;;;;;;;16.13;56.58;100890.81;218763;1288;139190;-88
2023/05/22 00:25:22;;;;;;;10.10;4.70;;;;;;;16.07;56.90;100890.28;219500;1286;95688;-86
2023/05/22 00:30:23;;;;;;;8.40;4.00;;;;;;;15.99;57.11;100884.20;218852;1286;138175;-87
2023/05/22 00:35:23;;;;;;;9.50;4.20;;;;;;;15.94;57.72;100884.94;219275;1286;138776;-89
2023/05/22 00:40:23;;;;;;;9.00;4.60;;;;;;;15.89;57.84;100878.77;218860;1286;139469;-90
2023/05/22 00:45:24;;;;;;;8.00;3.90;;;;;;;15.83;58.19;100882.27;219419;1286;138514;-88
2023/05/22 00:50:24;;;;;;;9.50;3.90;;;;;;;15.77;58.46;100875.63;218903;1286;139373;-90
2023/05/22 00:55:25;;;;;;;9.20;3.90;;;;;;;15.70;58.75;100873.67;219505;1286;95665;-87
2023/05/22 01:00:25;;;;;;;9.60;4.10;;;;;;;15.65;58.96;100875.98;218901;1287;138120;-87
2023/05/22 01:05:25;;;;;;;8.40;4.50;;;;;;;15.59;59.39;100874.80;219470;1286;138550;-87
2023/05/22 01:10:27;;;;;;;8.60;4.60;;;;;;;15.53;59.65;100870.39;218943;1286;139533;-88
2023/05/22 01:15:55;;;;;;;9.60;4.10;;;;;;;15.46;59.92;100869.84;219347;1287;138408;-87
2023/05/22 01:21:12;;;;;;;10.00;4.90;;;;;;;15.39;60.30;100877.06;218762;1286;138986;-86
2023/05/22 01:26:35;;;;;;;9.40;5.00;;;;;;;15.34;60.62;100871.20;219334;1287;105266;-86
2023/05/22 01:31:39;;;;;;;11.60;4.40;;;;;;;15.26;60.95;100872.37;218860;1286;138029;-86
2023/05/22 01:36:41;;;;;;;9.80;5.00;;;;;;;15.22;61.11;100874.36;219401;1286;138363;-86
2023/05/22 01:41:42;;;;;;;11.50;5.20;;;;;;;15.17;61.40;100873.56;218823;1286;138871;-87
2023/05/22 01:46:42;;;;;;;10.00;4.60;;;;;;;15.12;61.86;100876.48;219307;1286;140429;-86
2023/05/22 01:51:46;;;;;;;8.50;4.80;;;;;;;15.05;62.26;100870.40;218808;1286;138906;-87
2023/05/22 01:57:11;;;;;;;9.20;4.60;;;;;;;15.01;62.42;100867.94;219382;1287;139172;-86
2023/05/22 02:02:14;;;;;;;9.50;4.80;;;;;;;14.97;63.00;100868.89;218869;1286;140074;-87
2023/05/22 02:07:18;;;;;;;9.20;4.60;;;;;;;14.92;63.20;100866.83;219409;1286;138046;-86
2023/05/22 02:12:19;;;;;;;11.40;5.60;;;;;;;14.88;63.38;100865.95;218794;1286;138528;-87
2023/05/22 02:17:20;;;;;;;12.80;4.90;;;;;;;14.83;63.75;100864.77;219298;1286;138495;-86
2023/05/22 02:22:21;;;;;;;8.80;4.50;;;;;;;14.79;64.22;100862.14;218829;1287;139218;-86
2023/05/22 02:27:21;;;;;;;11.10;4.80;;;;;;;14.75;64.39;100859.77;219363;1286;138280;-86
2023/05/22 02:32:21;;;;;;;10.90;5.00;;;;;;;14.70;64.94;100860.96;218956;1286;139178;-87
2023/05/22 02:37:22;;;;;;;12.00;5.10;;;;;;;14.65;65.51;100865.14;219413;1286;138339;-87
2023/05/22 02:42:22;;;;;;;11.70;5.00;;;;;;;14.57;66.39;100861.00;218698;1286;364788;-86
2023/05/22 02:47:23;;;;;;;10.20;4.60;;;;;;;14.50;66.82;100860.84;219366;1288;138490;-87
2023/05/22 02:52:23;;;;;;;10.10;5.50;;;;;;;14.44;67.04;100860.58;218914;1286;139011;-87
2023/05/22 02:57:24;;;;;;;10.00;4.60;;;;;;;14.40;67.21;100857.73;219354;1286;138921;-86
2023/05/22 03:02:27;;;;;;;8.50;4.00;;;;;;;14.34;67.23;100851.31;218784;1286;138705;-88
2023/05/22 03:07:28;;;;;;;12.80;5.20;;;;;;;14.29;67.51;100852.48;219402;1286;96119;-86
2023/05/22 03:12:29;;;;;;;11.50;5.30;;;;;;;14.26;67.53;100846.14;218789;1287;139777;-87
2023/05/22 03:17:29;;;;;;;8.40;4.70;;;;;;;14.24;67.80;100846.63;219386;1286;140403;-87
2023/05/22 03:22:30;;;;;;;8.70;4.40;;;;;;;14.22;67.67;100845.18;218844;1286;139648;-86
2023/05/22 03:27:30;;;;;;;10.70;4.50;;;;;;;14.21;67.71;100843.20;219334;1286;138163;-88
2023/05/22 03:32:30;;;;;;;8.30;4.40;;;;;;;14.22;67.84;100840.20;218860;1286;138839;-89
2023/05/22 03:37:31;;;;;;;8.60;4.60;;;;;;;14.20;68.13;100842.56;219495;1286;95713;-88
2023/05/22 03:42:31;;;;;;;8.40;4.30;;;;;;;14.18;68.28;100847.52;218771;1286;138756;-89
2023/05/22 03:47:31;;;;;;;10.00;4.90;;;;;;;14.18;68.45;100850.83;219368;1286;138801;-87
2023/05/22 03:52:31;;;;;;;12.00;5.40;;;;;;;14.16;68.29;100852.56;218857;1286;139206;-88
2023/05/22 03:57:32;;;;;;;10.00;5.10;;;;;;;14.16;68.43;100848.62;219494;1286;138375;-88
2023/05/22 04:02:32;;;;;;;14.70;5.70;;;;;;;14.17;68.45;100843.16;218850;1286;139061;-88
2023/05/22 04:07:32;;;;;;;13.30;5.80;;;;;;;14.18;68.60;100848.33;219427;1286;104459;-88
2023/05/22 04:12:33;;;;;;;13.40;5.30;;;;;;;14.21;68.78;100843.84;218873;1287;139072;-88
2023/05/22 04:17:38;;;;;;;10.40;4.60;;;;;;;14.26;68.93;100838.86;219434;1286;140562;-89
2023/05/22 04:22:39;;;;;;;11.50;5.10;;;;;;;14.34;69.17;100841.34;218650;1287;140017;-89
2023/05/22 04:27:40;;;;;;;9.60;5.00;;;;;;;14.44;69.02;100838.98;219355;1286;138376;-88
2023/05/22 04:32:40;;;;;;;8.70;4.30;;;;;;;14.55;68.89;100835.69;218943;1286;139289;-88
2023/05/22 04:37:41;;;;;;;10.00;4.80;;;;;;;14.67;68.65;100831.50;219566;1286;95668;-89
2023/05/22 04:42:41;;;;;;;7.50;4.00;;;;;;;14.82;68.40;100833.98;218907;1286;139396;-88
2023/05/22 04:47:42;;;;;;;9.90;4.80;;;;;;;14.94;68.24;100832.70;219141;1286;138195;-88
2023/05/22 04:52:42;;;;;;;10.30;4.80;;;;;;;15.06;68.02;100833.34;218882;1286;138326;-87
2023/05/22 04:57:46;;;;;;;10.70;4.70;;;;;;;15.20;68.05;100837.76;219343;1286;138775;-91
2023/05/22 05:02:46;;;;;;;9.00;4.80;;;;;;;15.33;67.78;100834.89;218828;1286;138273;-88
2023/05/22 05:07:48;;;;;;;9.70;5.40;;;;;;;15.47;67.85;100829.58;219530;1286;95806;-88
2023/05/22 05:12:48;;;;;;;11.00;5.10;;;;;;;15.63;67.62;100829.29;218801;1286;138292;-89
2023/05/22 05:17:49;;;;;;;9.60;5.20;;;;;;;15.81;67.79;100833.99;219335;1286;138559;-87
2023/05/22 05:22:50;;;;;;;11.30;4.80;;;;;;;16.05;67.63;100834.84;218698;1286;138878;-89
2023/05/22 05:27:50;;;;;;;12.90;4.80;;;;;;;16.39;67.54;100835.39;219465;1286;140081;-87
2023/05/22 05:32:50;;;;;;;9.10;4.70;;;;;;;16.86;67.16;100837.92;218843;1286;139498;-87
2023/05/22 05:37:51;;;;;;;10.40;4.80;;;;;;;17.43;66.86;100842.50;219536;1286;95815;-92
2023/05/22 05:42:51;;;;;;;12.00;5.70;;;;;;;18.08;64.94;100846.06;218946;1286;138254;-89
2023/05/22 05:47:52;;;;;;;12.50;5.30;;;;;;;18.80;64.04;100847.60;219257;1286;138796;-89
2023/05/22 05:52:52;;;;;;;10.60;5.00;;;;;;;19.52;61.58;100847.89;218826;1286;138406;-89
2023/05/22 05:57:53;;;;;;;9.90;4.70;;;;;;;20.22;59.68;100844.73;219436;1286;138302;-93
2023/05/22 06:02:53;;;;;;;11.60;4.20;;;;;;;20.94;58.68;100840.91;218818;1286;138744;-89
2023/05/22 06:07:56;;;;;;;19.90;4.60;;;;;;;21.43;55.26;100838.95;219510;1286;96069;-87
2023/05/22 06:12:57;;;;;;;9.70;4.40;;;;;;;21.80;54.25;100834.15;218680;1286;138453;-87
2023/05/22 06:17:58;;;;;;;8.80;4.10;;;;;;;22.42;53.35;100830.50;219380;1286;139191;-90
2023/05/22 06:22:58;;;;;;;17.00;4.20;;;;;;;22.91;51.97;100827.89;218948;1286;139285;-88
2023/05/22 06:27:59;;;;;;;13.70;4.20;;;;;;;23.50;51.03;100823.70;219436;1286;138678;-88
2023/05/22 06:33:00;;;;;;;12.70;3.80;;;;;;;24.02;49.12;100834.10;218899;1286;138883;-89
2023/05/22 06:38:00;;;;;;;8.30;3.20;;;;;;;24.22;47.51;100836.55;219546;1286;96501;-88
2023/05/22 06:43:01;;;;;;;10.00;3.60;;;;;;;24.44;47.10;100836.75;218866;1286;138720;-89
2023/05/22 06:48:01;;;;;;;9.30;3.70;;;;;;;24.94;46.66;100829.52;219286;1286;139582;-88
2023/05/22 06:53:01;;;;;;;8.50;3.60;;;;;;;25.11;45.32;100833.13;218838;1286;138684;-88
2023/05/22 06:58:02;;;;;;;6.50;3.10;;;;;;;25.39;44.33;100831.64;219302;1286;138303;-92
2023/05/22 07:03:05;;;;;;;8.20;2.90;;;;;;;25.58;42.61;100829.84;218855;1286;138644;-89
2023/05/22 07:08:07;;;;;;;8.90;3.20;;;;;;;25.69;42.69;100824.50;219419;1286;95702;-92
2023/05/22 07:13:07;;;;;;;9.50;3.10;;;;;;;26.06;42.21;100827.81;218804;1286;137889;-90
2023/05/22 07:18:08;;;;;;;11.80;3.10;;;;;;;26.16;41.14;100828.81;219381;1286;138027;-91
2023/05/22 07:23:09;;;;;;;6.20;2.50;;;;;;;26.47;41.29;100829.17;218751;1286;139247;-89
2023/05/22 07:28:10;;;;;;;6.90;2.80;;;;;;;26.76;40.21;100829.95;219382;1286;138315;-92
2023/05/22 07:33:11;;;;;;;7.30;3.40;;;;;;;26.64;39.35;100831.44;218906;1286;139273;-90
2023/05/22 07:38:11;;;;;;;6.50;3.00;;;;;;;26.40;39.09;100829.09;219443;1287;95626;-92
2023/05/22 07:43:14;;;;;;;5.90;3.30;;;;;;;26.21;38.35;100828.34;218880;1286;138766;-88
2023/05/22 07:48:14;;;;;;;6.30;2.70;;;;;;;25.94;38.25;100825.30;219418;1286;138747;-88
2023/05/22 07:53:15;;;;;;;6.40;2.80;;;;;;;25.73;37.44;100822.30;218873;1286;139177;-89
2023/05/22 07:58:15;;;;;;;10.90;2.80;;;;;;;25.55;37.90;100818.04;219463;1286;138378;-87
2023/05/22 08:03:16;;;;;;;4.20;2.50;;;;;;;25.65;38.50;100822.80;218788;1286;139083;-88
2023/05/22 08:08:16;;;;;;;4.80;2.30;;;;;;;25.97;38.49;100821.13;219510;1286;96000;-88
2023/05/22 08:13:17;;;;;;;5.90;2.70;;;;;;;26.43;37.20;100822.04;218803;1286;138232;-89
2023/05/22 08:18:18;;;;;;;8.40;3.20;;;;;;;26.95;36.66;100817.06;219199;1286;138556;-94
2023/05/22 08:23:19;;;;;;;4.10;2.20;;;;;;;27.34;35.12;100813.09;218698;1286;138600;-88
2023/05/22 08:28:19;;;;;;;3.20;2.00;;;;;;;27.46;34.25;100812.42;219372;1286;138347;-88
2023/05/22 08:33:20;;;;;;;6.10;2.60;;;;;;;27.65;33.73;100810.02;218824;1286;139473;-85
2023/05/22 08:38:21;;;;;;;5.00;2.60;;;;;;;27.80;34.33;100805.39;219474;1286;105081;-91
2023/05/22 08:43:22;;;;;;;7.70;2.70;;;;;;;28.36;34.47;100802.25;218943;1286;138177;-89
2023/05/22 08:48:23;;;;;;;5.80;2.60;;;;;;;28.80;32.36;100807.19;219381;1286;138847;-86
2023/05/22 08:53:26;;;;;;;6.10;2.70;;;;;;;29.10;32.99;100797.73;218862;1286;138847;-85
2023/05/22 08:58:27;;;;;;;6.90;3.40;;;;;;;29.62;30.88;100800.76;219281;1286;138472;-85
2023/05/22 09:03:31;;;;;;;4.40;2.50;;;;;;;29.84;31.70;100795.36;218825;1286;138852;-84
2023/05/22 09:08:32;;;;;;;7.10;2.50;;;;;;;30.12;30.24;100784.70;219514;1286;139488;-83
2023/05/22 09:13:32;;;;;;;8.30;3.30;;;;;;;30.07;30.12;100779.54;218968;1286;138605;-87
2023/05/22 09:18:32;;;;;;;6.50;2.70;;;;;;;30.43;29.99;100776.72;219318;1287;138228;-87
2023/05/22 09:23:33;;;;;;;9.00;2.60;;;;;;;30.77;29.80;100772.80;218878;1286;138806;-88
2023/05/22 09:28:35;;;;;;;7.00;2.60;;;;;;;31.09;29.59;100769.92;219432;1286;138160;-85
2023/05/22 09:33:36;;;;;;;7.30;2.50;;;;;;;31.20;29.04;100763.47;218845;1286;138674;-91
2023/05/22 09:38:37;;;;;;;10.60;2.80;;;;;;;31.22;28.78;100763.33;219473;1286;140249;-84
2023/05/22 09:43:37;;;;;;;7.60;3.20;;;;;;;31.21;28.55;100766.59;218923;1286;138226;-87
2023/05/22 09:48:37;;;;;;;5.10;2.70;;;;;;;31.13;28.74;100765.14;219545;1286;138672;-84
2023/05/22 09:53:42;;;;;;;7.10;2.80;;;;;;;31.71;29.01;100754.09;218914;1286;138567;-89
2023/05/22 09:58:44;;;;;;;;;;;;;;;31.93;28.57;100750.40;219351;1287;138265;-85
2023/05/22 10:03:46;;;;;;;7.10;2.70;;;;;;;32.68;28.24;100741.83;218936;1286;125565;-86
2023/05/22 10:08:53;;;;;;;5.70;2.60;;;;;;;33.33;27.25;100735.47;219279;1286;138171;-88
2023/05/22 10:13:54;;;;;;;5.40;2.60;;;;;;;33.34;26.47;100731.06;218784;1286;138035;-87
2023/05/22 10:18:55;;;;;;;4.40;2.40;;;;;;;33.41;26.40;100726.80;219302;1286;138119;-88
2023/05/22 10:23:57;;;;;;;6.00;2.70;;;;;;;33.42;26.10;100727.49;218925;1286;138860;-88
2023/05/22 10:29:06;;;;;;;7.30;2.90;;;;;;;33.14;26.00;100730.01;219452;1286;138178;-86
2023/05/22 10:34:11;;;;;;;7.10;2.90;;;;;;;33.09;27.20;100721.35;218912;1286;138240;-89
2023/05/22 10:39:29;;;;;;;6.70;2.60;;;;;;;32.85;26.36;100717.73;218711;1287;138883;-86
2023/05/22 10:44:32;;;;;;;6.10;3.00;;;;;;;32.50;26.98;100706.43;219214;1287;138313;-84
2023/05/22 10:49:32;;;;;;;6.10;2.70;;;;;;;32.92;26.48;100696.73;218950;1286;138569;-92
2023/05/22 10:54:43;;;;;;;6.30;2.80;;;;;;;32.12;26.24;100693.52;219466;1286;138212;-86
2023/05/22 10:59:46;;;;;;;5.10;2.60;;;;;;;32.33;26.93;100684.53;218892;1286;138851;-88
2023/05/22 11:04:48;;;;;;;5.20;2.50;;;;;;;32.79;27.37;100680.91;219443;1286;138623;-89
2023/05/22 11:09:48;;;;;;;6.60;3.40;;;;;;;33.30;27.52;100674.67;218902;1286;139097;-85
2023/05/22 11:15:04;;;;;;;5.50;3.00;;;;;;;33.23;25.64;100677.93;219288;1286;138710;-85
2023/05/22 11:20:11;;;;;;;4.90;2.60;;;;;;;32.62;26.10;100677.80;218943;1287;139175;-85
2023/05/22 11:25:19;;;;;;;4.70;2.60;;;;;;;32.57;26.06;100677.28;219347;1286;138566;-86
2023/05/22 11:30:23;;;;;;;4.10;2.60;;;;;;;32.36;26.38;100675.59;218800;1286;139018;-86
2023/05/22 11:35:24;;;;;;;10.90;2.90;;;;;;;32.68;26.43;100673.00;219417;1286;138410;-82
2023/05/22 11:40:28;;;;;;;5.30;2.70;;;;;;;32.78;25.75;100664.29;218780;1287;139873;-85
2023/05/22 11:45:28;;;;;;;5.00;2.80;;;;;;;32.82;26.45;100665.77;219417;1286;139685;-85
2023/05/22 11:50:29;;;;;;;5.50;2.80;;;;;;;32.78;25.51;100659.55;218832;1287;139508;-84
2023/05/22 11:55:29;;;;;;;7.10;2.70;;;;;;;32.25;26.72;100657.77;219564;1286;95648;-83
2023/05/22 12:00:30;;;;;;;10.40;3.30;;;;;;;32.49;26.24;100653.42;218816;1287;138652;-83
2023/05/22 12:05:31;;;;;;;5.80;2.80;;;;;;;32.32;26.45;100646.21;219280;1287;139899;-84
2023/05/22 12:10:31;;;;;;;6.90;3.20;;;;;;;32.79;26.86;100632.17;218736;1286;138863;-82
2023/05/22 12:15:32;;;;;;;6.00;2.80;;;;;;;33.17;25.53;100634.64;219414;1287;138422;-83
2023/05/22 12:20:32;;;;;;;11.20;3.70;;;;;;;32.65;25.24;100630.05;218859;1286;139409;-84
2023/05/22 12:25:36;;;;;;;6.10;2.80;;;;;;;31.91;25.32;100634.95;219533;1286;96152;-82
2023/05/22 12:30:40;;;;;;;8.80;2.90;;;;;;;31.82;26.43;100625.91;218829;1286;138547;-82
2023/05/22 12:35:41;;;;;;;6.30;3.20;;;;;;;32.07;25.88;100618.02;219414;1286;139113;-84
2023/05/22 12:40:41;;;;;;;5.10;2.70;;;;;;;31.89;25.69;100611.10;218879;1286;138415;-82
2023/05/22 12:45:41;;;;;;;6.40;2.90;;;;;;;31.67;25.76;100607.90;219356;1286;140058;-82
2023/05/22 12:50:43;;;;;;;6.10;2.60;;;;;;;31.39;26.59;100599.90;218869;1286;138145;-88
2023/05/22 12:55:44;;;;;;;5.10;2.60;;;;;;;31.07;25.55;100593.88;219420;1286;96196;-86
2023/05/22 13:00:44;;;;;;;6.80;2.70;;;;;;;30.98;26.46;100588.95;218918;1286;138605;-87
2023/05/22 13:05:45;;;;;;;4.50;2.50;;;;;;;30.82;26.94;100587.67;219410;1286;138381;-86
2023/05/22 13:10:45;;;;;;;6.40;2.60;;;;;;;30.59;26.61;100586.80;218769;1286;138915;-85
2023/05/22 13:15:45;;;;;;;7.70;2.80;;;;;;;30.03;26.34;100591.27;219325;1291;138182;-87
2023/05/22 13:20:46;;;;;;;6.00;2.50;;;;;;;30.02;26.65;100581.55;218826;1287;139739;-85
2023/05/22 13:25:47;;;;;;;6.00;2.60;;;;;;;30.08;27.03;100573.80;219489;1286;95789;-85
2023/05/22 13:30:47;;;;;;;9.40;3.20;;;;;;;30.14;27.28;100575.56;218979;1286;140384;-85
2023/05/22 13:35:47;;;;;;;7.10;2.90;;;;;;;30.17;27.47;100570.41;219207;1286;139566;-84
2023/05/22 13:40:48;;;;;;;9.70;3.20;;;;;;;30.36;27.95;100567.98;218873;1286;138981;-82
2023/05/22 13:45:48;;;;;;;5.70;2.30;;;;;;;30.36;27.17;100562.88;219299;1287;138322;-82
2023/05/22 13:50:48;;;;;;;7.90;3.00;;;;;;;30.03;27.86;100558.55;218743;1286;138842;-83
2023/05/22 13:55:49;;;;;;;10.80;3.50;;;;;;;30.13;27.65;100552.32;219540;1287;95706;-86
2023/05/22 14:00:50;;;;;;;11.20;2.80;;;;;;;30.02;27.60;100550.33;218798;1288;139650;-89
2023/05/22 14:05:50;;;;;;;8.50;2.70;;;;;;;29.77;27.62;100546.00;219158;1287;138248;-86
2023/05/22 14:10:51;;;;;;;28.80;5.10;;;;;;;29.51;27.38;100551.77;218865;1288;138611;-83
2023/05/22 14:15:51;;;;;;;7.60;4.00;;;;;;;29.30;27.94;100546.48;219401;1287;138497;-84
2023/05/22 14:20:51;;;;;;;10.60;3.40;;;;;;;29.09;28.89;100540.36;218870;1287;138637;-83
2023/05/22 14:25:52;;;;;;;12.30;3.40;;;;;;;29.03;29.16;100533.70;219582;1286;95966;-85
2023/05/22 14:30:52;;;;;;;7.20;2.60;;;;;;;28.75;28.93;100534.06;218778;1286;138663;-84
2023/05/22 14:35:53;;;;;;;5.50;3.10;;;;;;;28.71;29.73;100533.14;219313;1286;138291;-84
2023/05/22 14:40:53;;;;;;;7.40;3.10;;;;;;;28.58;29.60;100522.95;218673;1286;221379;-85
2023/05/22 14:45:55;;;;;;;8.40;2.90;;;;;;;28.52;29.21;100524.38;219313;1287;138536;-87
2023/05/22 14:50:56;;;;;;;5.30;2.30;;;;;;;28.20;29.33;100516.50;218817;1287;138610;-87
2023/05/22 14:55:57;;;;;;;6.90;2.70;;;;;;;27.98;30.03;100510.48;219334;1287;95705;-85
2023/05/22 15:00:57;;;;;;;12.80;3.90;;;;;;;27.96;30.22;100509.47;218918;1286;139089;-86
2023/05/22 15:05:57;;;;;;;5.80;2.80;;;;;;;27.79;31.66;100503.98;219400;1286;138226;-86
2023/05/22 15:10:58;;;;;;;5.50;2.80;;;;;;;27.51;32.11;100502.21;218729;1286;138355;-86
2023/05/22 15:15:58;;;;;;;6.00;2.70;;;;;;;27.09;31.49;100500.64;219166;1288;138134;-86
2023/05/22 15:20:59;;;;;;;6.20;2.80;;;;;;;26.80;31.46;100498.52;218801;1286;138861;-85
2023/05/22 15:26:00;;;;;;;7.20;3.10;;;;;;;26.57;31.88;100492.85;219377;1286;95641;-87
2023/05/22 15:31:00;;;;;;;6.30;3.20;;;;;;;26.33;31.31;100493.74;218765;1286;138599;-86
2023/05/22 15:36:00;;;;;;;6.90;3.30;;;;;;;26.10;31.35;100487.10;219268;1286;138515;-87
2023/05/22 15:41:01;;;;;;;4.70;2.30;;;;;;;25.83;31.12;100480.88;218859;1286;138662;-91
2023/05/22 15:46:01;;;;;;;6.90;2.80;;;;;;;25.60;31.07;100477.68;219293;1288;138540;-88
2023/05/22 15:51:02;;;;;;;12.50;4.00;;;;;;;25.47;31.41;100465.94;218876;1286;139866;-87
2023/05/22 15:56:03;;;;;;;7.20;3.20;;;;;;;25.25;31.47;100465.24;219507;1287;95787;-86
2023/05/22 16:01:04;;;;;;;8.70;3.30;;;;;;;24.95;31.48;100466.75;218666;1286;137913;-88
2023/05/22 16:06:05;;;;;;;5.60;2.70;;;;;;;24.74;31.92;100462.37;219180;1286;138393;-87
2023/05/22 16:11:06;;;;;;;6.70;3.10;;;;;;;24.65;32.63;100457.80;218878;1287;138196;-91
2023/05/22 16:16:06;;;;;;;7.00;2.90;;;;;;;24.54;33.25;100447.73;219340;1287;139045;-87
2023/05/22 16:21:06;;;;;;;9.00;3.20;;;;;;;24.45;33.33;100445.73;218878;1286;138503;-86
2023/05/22 16:26:07;;;;;;;8.10;3.30;;;;;;;24.28;34.12;100448.11;219437;1286;95710;-89
2023/05/22 16:31:07;;;;;;;6.20;2.70;;;;;;;24.08;34.19;100441.23;218876;1286;138803;-87
2023/05/22 16:36:08;;;;;;;8.30;3.00;;;;;;;23.91;35.04;100440.20;219436;1289;138608;-86
2023/05/22 16:41:08;;;;;;;6.80;3.30;;;;;;;23.78;35.77;100439.83;218841;1286;138543;-88
2023/05/22 16:46:09;;;;;;;5.70;3.10;;;;;;;23.71;36.05;100440.26;219444;1289;139039;-87
2023/05/22 16:51:10;;;;;;;6.30;2.90;;;;;;;23.65;36.39;100437.94;218935;1288;138758;-90
2023/05/22 16:56:11;;;;;;;9.00;3.10;;;;;;;23.58;36.69;100438.85;219301;1286;95697;-94
2023/05/22 17:01:11;;;;;;;8.40;3.60;;;;;;;23.49;36.82;100440.92;218705;1286;138276;-88
2023/05/22 17:06:12;;;;;;;8.10;2.80;;;;;;;23.38;37.00;100436.59;219436;1286;138784;-88
2023/05/22 17:11:13;;;;;;;9.50;2.90;;;;;;;23.23;36.98;100436.16;218607;1286;138146;-91
2023/05/22 17:16:14;;;;;;;9.50;3.40;;;;;;;23.10;36.95;100437.45;219206;1287;138100;-86
2023/05/22 17:21:16;;;;;;;11.00;3.30;;;;;;;22.99;37.64;100429.90;218798;1291;138208;-94
2023/05/22 17:26:16;;;;;;;8.20;3.60;;;;;;;22.86;37.81;100430.80;219148;1290;96163;-86
2023/05/22 17:31:17;;;;;;;9.40;3.60;;;;;;;22.76;38.30;100437.29;218755;1288;139157;-87
2023/05/22 17:36:17;;;;;;;15.40;4.20;;;;;;;22.66;38.26;100434.91;219354;1287;138929;-88
2023/05/22 17:41:17;;;;;;;9.20;3.40;;;;;;;22.58;38.69;100430.98;218842;1286;138696;-88
2023/05/22 17:46:18;;;;;;;17.70;4.00;;;;;;;22.48;38.76;100428.02;219342;1286;138804;-88
2023/05/22 17:51:18;;;;;;;8.80;3.20;;;;;;;22.39;39.23;100432.82;218817;1286;138539;-87
2023/05/22 17:56:19;;;;;;;7.80;3.30;;;;;;;22.28;39.71;100428.19;219312;1286;95743;-87
2023/05/22 18:01:19;;;;;;;8.20;3.40;;;;;;;22.15;40.12;100426.49;218849;1286;137973;-89
2023/05/22 18:06:20;;;;;;;12.00;4.40;;;;;;;22.02;40.21;100429.75;219441;1286;138798;-93
2023/05/22 18:11:22;;;;;;;9.80;3.50;;;;;;;21.89;40.65;100437.89;218733;1286;138663;-86
2023/05/22 18:16:22;;;;;;;10.10;4.50;;;;;;;21.74;41.42;100438.34;219292;1288;138287;-86
2023/05/22 18:21:22;;;;;;;11.80;5.00;;;;;;;21.60;41.38;100436.34;218929;1286;138632;-88
2023/05/22 18:26:23;;;;;;;10.20;3.70;;;;;;;21.46;41.49;100433.67;219402;1288;105506;-87
2023/05/22 18:31:23;;;;;;;10.10;4.60;;;;;;;21.30;41.81;100437.48;218787;1289;139264;-87
2023/05/22 18:36:24;;;;;;;10.70;4.10;;;;;;;21.18;42.67;100431.79;219216;1286;137008;-86
2023/05/22 18:41:25;;;;;;;12.00;4.60;;;;;;;21.04;42.78;100429.84;218643;1286;138500;-88
2023/05/22 18:46:25;;;;;;;10.00;4.10;;;;;;;20.87;43.25;100425.88;219109;1286;138532;-88
2023/05/22 18:51:25;;;;;;;10.90;3.70;;;;;;;20.72;43.82;100428.27;218642;1286;138660;-87
2023/05/22 18:56:26;;;;;;;8.80;3.90;;;;;;;20.53;44.08;100434.83;219376;1286;95647;-89
2023/05/22 19:01:26;;;;;;;8.20;3.50;;;;;;;20.34;45.14;100434.35;218713;1286;138043;-87
2023/05/22 19:06:27;;;;;;;6.30;2.90;;;;;;;20.12;45.51;100444.52;219312;1286;138089;-88
2023/05/22 19:17:26;;;;;;;7.50;3.10;;;;;;;19.68;46.66;100452.31;218535;1286;138441;-89
2023/05/22 19:22:26;;;;;;;9.10;3.80;;;;;;;19.52;47.06;100445.64;218762;1286;138490;-90
2023/05/22 19:27:27;;;;;;;10.40;3.80;;;;;;;19.32;47.75;100444.86;219105;1286;138368;-90
2023/05/22 19:32:28;;;;;;;8.50;4.00;;;;;;;19.12;48.21;100443.22;218749;1286;138496;-90
2023/05/22 19:37:28;;;;;;;10.10;3.90;;;;;;;18.97;48.89;100447.56;219113;1286;95736;-91
2023/05/22 19:42:28;;;;;;;8.40;3.70;;;;;;;18.82;48.86;100441.69;218624;1286;138092;-90
2023/05/22 19:47:29;;;;;;;9.30;3.80;;;;;;;18.67;49.34;100443.45;219312;1286;138257;-90
2023/05/22 19:52:32;;;;;;;9.10;3.70;;;;;;;18.55;49.76;100442.36;218748;1286;138277;-89
2023/05/22 19:57:33;;;;;;;10.30;3.50;;;;;;;18.41;50.44;100440.10;219145;1287;138539;-90
2023/05/22 20:02:33;;;;;;;6.70;3.50;;;;;;;18.27;50.34;100440.05;218618;1286;139160;-90
2023/05/22 20:07:37;;;;;;;10.60;3.60;;;;;;;18.15;51.48;100446.08;219445;1286;96080;-90
2023/05/22 20:12:38;;;;;;;7.80;3.90;;;;;;;18.02;51.82;100437.75;218734;1286;138849;-90
2023/05/22 20:17:40;;;;;;;8.20;3.70;;;;;;;17.91;52.42;100438.20;219410;1286;138443;-90
2023/05/22 20:22:40;;;;;;;10.60;3.70;;;;;;;17.79;52.70;100440.58;218808;1286;138678;-90
2023/05/22 20:27:41;;;;;;;10.30;5.70;;;;;;;17.69;53.30;100436.39;219388;1286;139904;-91
2023/05/22 20:32:44;;;;;;;14.20;5.60;;;;;;;17.58;53.52;100435.39;218890;1286;138852;-90
2023/05/22 20:37:45;;;;;;;10.90;4.70;;;;;;;17.46;53.50;100430.27;219356;1287;107969;-91
2023/05/22 20:42:46;;;;;;;10.40;4.90;;;;;;;17.36;54.07;100432.23;218740;1286;139525;-90
2023/05/22 20:47:47;;;;;;;10.70;4.50;;;;;;;17.26;54.17;100430.23;219187;1286;138534;-90
2023/05/22 20:52:47;;;;;;;10.50;4.50;;;;;;;17.16;54.38;100431.98;218647;1286;138798;-90
2023/05/22 20:57:48;;;;;;;11.60;5.30;;;;;;;17.07;54.71;100434.36;219295;1286;138622;-90
2023/05/22 21:02:48;;;;;;;8.80;4.20;;;;;;;16.96;55.12;100439.28;218767;1286;138507;-90
2023/05/22 21:07:49;;;;;;;9.40;5.20;;;;;;;16.89;55.43;100437.00;219458;1287;95693;-94
2023/05/22 21:12:50;;;;;;;10.00;4.70;;;;;;;16.81;55.98;100436.64;219019;1286;137970;-95
2023/05/22 21:18:11;;;;;;;14.80;5.60;;;;;;;16.70;55.87;100434.41;219578;1286;138502;-96
2023/05/22 21:23:11;;;;;;;9.30;4.90;;;;;;;16.58;56.23;100436.01;218989;1286;138424;-93
2023/05/22 21:28:14;;;;;;;9.70;5.30;;;;;;;16.49;56.14;100435.58;219368;1287;138412;-94
2023/05/22 21:33:15;;;;;;;11.70;5.30;;;;;;;16.41;56.58;100433.77;218891;1286;138690;-94
2023/05/22 21:38:18;;;;;;;9.60;4.80;;;;;;;16.35;56.77;100430.71;219578;1286;104300;-95
2023/05/22 21:43:19;;;;;;;11.00;5.10;;;;;;;16.26;56.83;100424.78;218986;1286;138088;-96
2023/05/22 21:48:19;;;;;;;12.00;5.30;;;;;;;16.21;57.06;100423.19;219307;1286;138382;-92
2023/05/22 21:53:20;;;;;;;10.00;5.20;;;;;;;16.14;57.03;100420.73;218693;1286;138608;-93
2023/05/22 21:58:26;;;;;;;10.40;5.10;;;;;;;16.09;57.48;100416.10;219207;1286;138423;-95
2023/05/22 22:03:28;;;;;;;10.20;5.10;;;;;;;16.02;57.70;100420.55;218899;1286;138401;-92
2023/05/22 22:08:28;;;;;;;13.60;5.60;;;;;;;15.94;57.71;100419.67;219436;1286;96165;-92
2023/05/22 22:13:29;;;;;;;11.10;5.20;;;;;;;15.89;57.81;100420.07;218786;1286;138488;-94
2023/05/22 22:18:33;;;;;;;11.90;5.00;;;;;;;15.83;58.29;100421.48;219256;1286;138262;-92
2023/05/22 22:23:43;;;;;;;9.30;5.20;;;;;;;15.74;58.66;100412.14;218765;1287;138652;-94
2023/05/22 22:28:43;;;;;;;11.80;6.10;;;;;;;15.66;58.94;100408.09;219086;1286;138629;-93
2023/05/22 22:33:48;;;;;;;8.50;4.60;;;;;;;15.59;59.29;100406.80;218621;1286;138356;-93
2023/05/22 22:38:50;;;;;;;9.90;5.00;;;;;;;15.52;59.56;100401.80;219356;1286;138215;-94
2023/05/22 22:43:50;;;;;;;11.10;5.40;;;;;;;15.45;59.79;100397.35;218712;1286;137679;-94
2023/05/22 22:48:51;;;;;;;9.10;4.60;;;;;;;15.38;60.18;100395.59;219250;1286;138136;-93